Enter the Airport ICAO Code

Search by Airport or City

Current Weather

LEGR | Federico García Lorca Airport (Granada Jaén Airport)

Granada, Andalusia, Spain

Last Update 4 Minutes Ago

Clear Sky

Temperature of 05 ºC

Calm Wind

Temperature

05 ºC

Dew Point Temperature

05 ºC

Relative Humidity

100 %

Wind Direction

None

Wind Velocity

0 km/h (0 kt)

Gusts

None

Visibility

No Significant Reductions

Sea Level Pressure

1024 hPa (Hectopascals)

Layers of Clouds

None

METAR LEGR 270330Z AUTO 00000KT CAVOK 05/05 Q1024

Weather Forecast

LEGR | Federico García Lorca Airport (Granada Jaén Airport)

Granada, Andalusia, Spain

Forecast valid for the next 23 Hours

From now on it is expected:

Sky with Few Clouds

Light Winds from Variable Directions

Maximum Temperature

16 ºC in 11 Hours

Minimum Temperature

03 ºC in 3 Hours

TAF LEGR 270200Z 2703/2803 VRB02KT 9999 FEW070 TX16/2715Z TN03/2707Z